Time;durP1;ratioP1;P1;durP2;ratioP2;P2;SDS_P1;SDS_P2;PMS_P1;PMS_P2;Temp;Humidity;BMP_temperature;BMP_pressure;BME280_temperature;BME280_humidity;BME280_pressure;Samples;Min_cycle;Max_cycle;Signal;HPM_P1;HPM_P2
2023/03/23 00:01:56;;;;;;;0.05;0.05;;;11.30;99.90;;;;;;5054735;28;20052;-80
2023/03/23 00:04:22;;;;;;;0.00;0.00;;;11.30;99.90;;;;;;5038147;28;20033;-80
2023/03/23 00:06:49;;;;;;;0.00;0.00;;;11.30;99.90;;;;;;5055861;28;20044;-80
2023/03/23 00:09:15;;;;;;;0.00;0.00;;;11.30;99.90;;;;;;5054842;28;20105;-80
2023/03/23 00:11:42;;;;;;;0.10;0.10;;;11.20;99.90;;;;;;5053929;28;20037;-80
2023/03/23 00:14:13;;;;;;;0.55;0.30;;;11.20;99.90;;;;;;5054248;28;20508;-81
2023/03/23 00:16:40;;;;;;;6.65;1.15;;;11.20;99.90;;;;;;5038642;28;20084;-81
2023/03/23 00:19:13;;;;;;;0.25;0.25;;;11.20;99.90;;;;;;5055160;28;20052;-80
2023/03/23 00:21:41;;;;;;;0.00;0.00;;;11.30;99.90;;;;;;5038043;28;20048;-80
2023/03/23 00:24:10;;;;;;;0.17;0.03;;;11.30;99.90;;;;;;5054870;28;20078;-81
2023/03/23 00:26:39;;;;;;;0.17;0.17;;;11.30;99.90;;;;;;5054403;28;20141;-81
2023/03/23 00:29:13;;;;;;;0.00;0.00;;;11.20;99.90;;;;;;5054542;28;20045;-80
2023/03/23 00:31:39;;;;;;;0.00;0.00;;;11.30;99.90;;;;;;5054709;28;20504;-80
2023/03/23 00:34:05;;;;;;;0.00;0.00;;;11.30;99.90;;;;;;5054467;28;20556;-80
2023/03/23 00:36:34;;;;;;;0.00;0.00;;;11.30;99.90;;;;;;5021450;28;20048;-81
2023/03/23 00:39:04;;;;;;;0.28;0.20;;;11.30;99.90;;;;;;5054249;28;20047;-80
2023/03/23 00:41:30;;;;;;;0.15;0.15;;;11.30;99.90;;;;;;5054026;28;20142;-80
2023/03/23 00:44:00;;;;;;;0.08;0.08;;;11.30;99.90;;;;;;5037414;28;20045;-80
2023/03/23 00:46:27;;;;;;;0.00;0.00;;;11.30;99.90;;;;;;5037567;28;20056;-81
2023/03/23 00:48:54;;;;;;;0.45;0.45;;;11.30;99.90;;;;;;5053890;28;20080;-81
2023/03/23 00:51:20;;;;;;;1.83;1.05;;;11.30;99.90;;;;;;5054050;28;20057;-81
2023/03/23 00:53:46;;;;;;;0.88;0.00;;;11.40;99.90;;;;;;5053253;28;20045;-81
2023/03/23 00:56:13;;;;;;;2.13;0.52;;;11.40;99.90;;;;;;5037318;28;20045;-81
2023/03/23 00:58:39;;;;;;;0.28;0.20;;;11.40;99.90;;;;;;5037355;28;20045;-81
2023/03/23 01:01:05;;;;;;;0.03;0.00;;;11.40;99.90;;;;;;5054745;28;20049;-81
2023/03/23 01:03:31;;;;;;;0.15;0.15;;;11.50;99.90;;;;;;5053906;28;20037;-80
2023/03/23 01:05:57;;;;;;;0.00;0.00;;;11.50;99.90;;;;;;5053779;28;20371;-80
2023/03/23 01:08:23;;;;;;;0.00;0.00;;;11.50;99.90;;;;;;5053659;28;20052;-81
2023/03/23 01:10:50;;;;;;;0.00;0.00;;;11.50;99.90;;;;;;5053669;28;20045;-80
2023/03/23 01:13:16;;;;;;;0.00;0.00;;;11.50;99.90;;;;;;5037011;28;20056;-81
2023/03/23 01:15:42;;;;;;;0.00;0.00;;;11.50;99.90;;;;;;5054003;28;20127;-81
2023/03/23 01:18:09;;;;;;;0.00;0.00;;;11.50;99.90;;;;;;5020422;28;20179;-80
2023/03/23 01:20:36;;;;;;;0.22;0.15;;;11.50;99.90;;;;;;5069792;28;20060;-80
2023/03/23 01:23:02;;;;;;;0.00;0.00;;;11.40;99.90;;;;;;5053986;28;20481;-80
2023/03/23 01:25:30;;;;;;;0.75;0.43;;;11.40;99.90;;;;;;5052943;28;20045;-81
2023/03/23 01:27:56;;;;;;;0.35;0.00;;;11.40;99.90;;;;;;5021008;28;20126;-81
2023/03/23 01:30:23;;;;;;;0.00;0.00;;;11.40;99.90;;;;;;5053178;28;20049;-80
2023/03/23 01:32:49;;;;;;;0.00;0.00;;;11.40;99.90;;;;;;5036668;28;20084;-81
2023/03/23 01:35:15;;;;;;;0.00;0.00;;;11.40;99.90;;;;;;5053271;28;20049;-81
2023/03/23 01:37:41;;;;;;;0.00;0.00;;;11.40;99.90;;;;;;5054118;28;20049;-81
2023/03/23 01:40:08;;;;;;;0.00;0.00;;;11.40;99.90;;;;;;5053147;28;20570;-80
2023/03/23 01:42:36;;;;;;;0.00;0.00;;;11.40;99.90;;;;;;5053923;28;20507;-81
2023/03/23 01:45:26;;;;;;;0.00;0.00;;;11.30;99.90;;;;;;5053066;28;20060;-80
2023/03/23 01:48:03;;;;;;;0.00;0.00;;;11.30;99.90;;;;;;5036159;28;20489;-80
2023/03/23 01:50:42;;;;;;;0.10;0.00;;;11.30;99.90;;;;;;5054071;28;20139;-80
2023/03/23 01:53:10;;;;;;;0.00;0.00;;;11.30;99.90;;;;;;5053241;28;20045;-80
2023/03/23 01:55:40;;;;;;;0.00;0.00;;;11.30;99.90;;;;;;5019442;28;20102;-81
2023/03/23 01:58:07;;;;;;;0.00;0.00;;;11.30;99.90;;;;;;5053916;28;20049;-81
2023/03/23 02:00:35;;;;;;;0.20;0.20;;;11.30;99.90;;;;;;5019766;28;20056;-80
2023/03/23 02:03:01;;;;;;;0.00;0.00;;;11.30;99.90;;;;;;5036173;28;20049;-81
2023/03/23 02:05:33;;;;;;;0.00;0.00;;;11.30;99.90;;;;;;5036329;28;20452;-81
2023/03/23 02:08:02;;;;;;;0.38;0.30;;;11.30;99.90;;;;;;5052777;28;20087;-80
2023/03/23 02:10:30;;;;;;;0.08;0.00;;;11.30;99.90;;;;;;5053639;28;20053;-80
2023/03/23 02:12:57;;;;;;;0.00;0.00;;;11.30;99.90;;;;;;5052492;28;20052;-80
2023/03/23 02:15:27;;;;;;;0.00;0.00;;;11.30;99.90;;;;;;5052688;28;20103;-81
2023/03/23 02:18:08;;;;;;;0.00;0.00;;;11.30;99.90;;;;;;5052611;28;20127;-81
2023/03/23 02:21:15;;;;;;;0.75;0.03;;;11.30;99.90;;;;;;5052464;28;20049;-80
2023/03/23 02:23:53;;;;;;;0.10;0.10;;;11.30;99.90;;;;;;4998972;28;20189;-83
2023/03/23 02:26:37;;;;;;;0.00;0.00;;;11.30;99.90;;;;;;5053711;28;20367;-80
2023/03/23 02:29:15;;;;;;;0.25;0.20;;;11.30;99.90;;;;;;5052481;28;20052;-80
2023/03/23 02:31:50;;;;;;;0.00;0.00;;;11.30;99.90;;;;;;5052287;28;20400;-80
2023/03/23 02:34:25;;;;;;;0.00;0.00;;;11.30;99.90;;;;;;5052642;28;20065;-80
2023/03/23 02:37:00;;;;;;;1.73;0.38;;;11.30;99.90;;;;;;5055866;28;20048;-80
2023/03/23 02:39:31;;;;;;;2.80;0.15;;;11.30;99.90;;;;;;5057750;28;20122;-80
2023/03/23 02:42:03;;;;;;;0.20;0.20;;;11.30;99.90;;;;;;5057485;28;20084;-81
2023/03/23 02:44:31;;;;;;;0.38;0.03;;;11.30;99.90;;;;;;5056185;28;20103;-80
2023/03/23 02:47:00;;;;;;;0.28;0.28;;;11.30;99.90;;;;;;5040216;28;20041;-80
2023/03/23 02:49:30;;;;;;;3.95;0.28;;;11.30;99.90;;;;;;5055959;28;20064;-80
2023/03/23 02:51:59;;;;;;;0.00;0.00;;;11.30;99.90;;;;;;5055812;28;20053;-80
2023/03/23 02:54:27;;;;;;;0.10;0.10;;;11.30;99.90;;;;;;5039425;28;20453;-80
2023/03/23 02:56:54;;;;;;;0.10;0.10;;;11.30;99.90;;;;;;5057139;28;20045;-80
2023/03/23 02:59:20;;;;;;;0.00;0.00;;;11.30;99.90;;;;;;5057779;28;20388;-80
2023/03/23 03:01:53;;;;;;;0.00;0.00;;;11.30;99.90;;;;;;5055983;28;20052;-80
2023/03/23 03:04:22;;;;;;;2.92;0.80;;;11.30;99.90;;;;;;5055821;28;20111;-80
2023/03/23 03:07:17;;;;;;;0.00;0.00;;;11.30;99.90;;;;;;5055757;28;20045;-80
2023/03/23 03:09:50;;;;;;;0.10;0.00;;;11.30;99.90;;;;;;5072671;28;20053;-80
2023/03/23 03:12:32;;;;;;;0.00;0.00;;;11.30;99.90;;;;;;5055793;28;20370;-80
2023/03/23 03:15:28;;;;;;;0.00;0.00;;;11.30;99.90;;;;;;5055795;28;20140;-80
2023/03/23 03:18:22;;;;;;;0.00;0.00;;;11.40;99.90;;;;;;5055825;28;20080;-80
2023/03/23 03:20:54;;;;;;;0.10;0.00;;;11.30;99.90;;;;;;5039343;28;20581;-80
2023/03/23 03:23:22;;;;;;;0.63;0.25;;;11.40;99.90;;;;;;5055785;28;20084;-80
2023/03/23 03:25:49;;;;;;;0.00;0.00;;;11.40;99.90;;;;;;5056172;28;20157;-79
2023/03/23 03:28:21;;;;;;;0.00;0.00;;;11.40;99.90;;;;;;5039100;28;20053;-80
2023/03/23 03:30:53;;;;;;;0.00;0.00;;;11.50;99.90;;;;;;5055887;28;20041;-80
2023/03/23 03:33:20;;;;;;;0.00;0.00;;;11.50;99.90;;;;;;5055629;28;20118;-80
2023/03/23 03:35:46;;;;;;;0.00;0.00;;;11.50;99.90;;;;;;5056516;28;20071;-80
2023/03/23 03:38:12;;;;;;;1.65;0.20;;;11.50;99.90;;;;;;5055240;28;20143;-79
2023/03/23 03:40:38;;;;;;;2.17;1.20;;;11.50;99.90;;;;;;5055236;28;20144;-80
2023/03/23 03:43:05;;;;;;;0.05;0.00;;;11.50;99.90;;;;;;5055721;28;20048;-80
2023/03/23 03:45:31;;;;;;;0.00;0.00;;;11.60;99.90;;;;;;5055362;28;20055;-80
2023/03/23 03:47:57;;;;;;;0.00;0.00;;;11.60;99.90;;;;;;5055406;28;20131;-80
2023/03/23 03:50:23;;;;;;;0.05;0.00;;;11.50;99.90;;;;;;5055192;28;20055;-80
2023/03/23 03:52:50;;;;;;;2.72;0.65;;;11.50;99.90;;;;;;5054659;28;20049;-80
2023/03/23 03:55:17;;;;;;;0.00;0.00;;;11.60;99.90;;;;;;5037820;28;20049;-80
2023/03/23 03:57:43;;;;;;;0.00;0.00;;;11.60;99.90;;;;;;5055141;28;20057;-80
2023/03/23 04:00:14;;;;;;;0.13;0.13;;;11.60;99.90;;;;;;5038529;28;20049;-80
2023/03/23 04:02:47;;;;;;;0.00;0.00;;;11.60;99.90;;;;;;5039266;28;20052;-79
2023/03/23 04:05:13;;;;;;;0.00;0.00;;;11.60;99.90;;;;;;5054991;28;20053;-80
2023/03/23 04:07:39;;;;;;;0.00;0.00;;;11.60;99.90;;;;;;5054779;28;20049;-80
2023/03/23 04:10:06;;;;;;;0.00;0.00;;;11.60;99.90;;;;;;5038140;28;20131;-80
2023/03/23 04:12:32;;;;;;;0.00;0.00;;;11.60;99.90;;;;;;5054503;28;20083;-80
2023/03/23 04:14:58;;;;;;;0.70;0.17;;;11.50;99.90;;;;;;5054575;28;20196;-80
2023/03/23 04:17:25;;;;;;;0.22;0.22;;;11.60;99.90;;;;;;5054858;28;20049;-80
2023/03/23 04:19:52;;;;;;;0.65;0.60;;;11.60;99.90;;;;;;5022106;28;20088;-80
2023/03/23 04:22:18;;;;;;;0.00;0.00;;;11.50;99.90;;;;;;5021371;28;20056;-80
2023/03/23 04:24:43;;;;;;;0.00;0.00;;;11.50;99.90;;;;;;5037653;28;20053;-80
2023/03/23 04:27:09;;;;;;;0.20;0.20;;;11.50;99.90;;;;;;5055535;28;20398;-80
2023/03/23 04:29:35;;;;;;;0.15;0.00;;;11.50;99.90;;;;;;5055453;28;20099;-80
2023/03/23 04:32:01;;;;;;;0.00;0.00;;;11.50;99.90;;;;;;5054403;28;20049;-80
2023/03/23 04:34:27;;;;;;;0.00;0.00;;;11.50;99.90;;;;;;5054451;28;20055;-80
2023/03/23 04:36:53;;;;;;;0.10;0.00;;;11.50;99.90;;;;;;5054178;28;20135;-80
2023/03/23 04:39:18;;;;;;;0.00;0.00;;;11.50;99.90;;;;;;5037722;28;20505;-80
2023/03/23 04:41:46;;;;;;;0.00;0.00;;;11.60;99.90;;;;;;5038288;28;20059;-80
2023/03/23 04:44:17;;;;;;;0.00;0.00;;;11.60;99.90;;;;;;5054038;28;20053;-80
2023/03/23 04:46:45;;;;;;;0.28;0.28;;;11.60;99.90;;;;;;5054183;28;20490;-80
2023/03/23 04:49:11;;;;;;;0.00;0.00;;;11.60;99.90;;;;;;5054190;28;20048;-80
2023/03/23 04:51:39;;;;;;;0.03;0.03;;;11.70;99.90;;;;;;5053736;28;20507;-81
2023/03/23 04:54:04;;;;;;;0.00;0.00;;;11.60;99.90;;;;;;5053423;28;20498;-81
2023/03/23 04:56:30;;;;;;;0.00;0.00;;;11.60;99.90;;;;;;5053888;28;20048;-80
2023/03/23 04:58:56;;;;;;;0.00;0.00;;;11.60;99.90;;;;;;5036613;28;20044;-80
2023/03/23 05:01:21;;;;;;;0.00;0.00;;;11.60;99.90;;;;;;5053781;28;20135;-81
2023/03/23 05:03:47;;;;;;;0.20;0.17;;;11.50;99.90;;;;;;5037023;28;20406;-81
2023/03/23 05:06:13;;;;;;;0.00;0.00;;;11.50;99.90;;;;;;5020545;28;20114;-81
2023/03/23 05:08:39;;;;;;;0.00;0.00;;;11.60;99.90;;;;;;5053782;28;20481;-80
2023/03/23 05:11:06;;;;;;;0.00;0.00;;;11.60;99.90;;;;;;5053914;28;20053;-80
2023/03/23 05:13:32;;;;;;;0.00;0.00;;;11.60;99.90;;;;;;5020564;28;20049;-80
2023/03/23 05:15:58;;;;;;;0.22;0.20;;;11.60;99.90;;;;;;5054813;28;20051;-80
2023/03/23 05:18:25;;;;;;;0.17;0.17;;;11.60;99.90;;;;;;5054555;28;20040;-80
2023/03/23 05:20:52;;;;;;;0.00;0.00;;;11.60;99.90;;;;;;5054462;28;20049;-80
2023/03/23 05:23:20;;;;;;;0.10;0.10;;;11.70;99.90;;;;;;5037332;28;20072;-80
2023/03/23 05:25:54;;;;;;;0.05;0.05;;;11.70;99.90;;;;;;5036195;28;20053;-80
2023/03/23 05:28:21;;;;;;;0.82;0.43;;;11.60;99.90;;;;;;5053287;28;20628;-81
2023/03/23 05:30:48;;;;;;;0.10;0.10;;;11.60;99.90;;;;;;5036854;28;20064;-80
2023/03/23 05:33:14;;;;;;;0.13;0.00;;;11.50;99.90;;;;;;5020138;28;20053;-81
2023/03/23 05:35:40;;;;;;;0.10;0.00;;;11.40;99.90;;;;;;5037064;28;20052;-83
2023/03/23 05:38:05;;;;;;;0.00;0.00;;;11.30;99.90;;;;;;5036708;28;20067;-82
2023/03/23 05:40:31;;;;;;;0.43;0.00;;;11.20;99.90;;;;;;5020366;28;20465;-82
2023/03/23 05:42:58;;;;;;;0.32;0.10;;;11.00;99.90;;;;;;5052959;28;20072;-82
2023/03/23 05:45:26;;;;;;;0.20;0.10;;;10.90;99.90;;;;;;5053030;28;20081;-81
2023/03/23 05:47:52;;;;;;;0.00;0.00;;;10.70;99.90;;;;;;5052921;28;20057;-81
2023/03/23 05:50:18;;;;;;;0.00;0.00;;;10.60;99.90;;;;;;5053736;28;20049;-82
2023/03/23 05:52:44;;;;;;;0.00;0.00;;;10.50;99.90;;;;;;5052481;28;20072;-82
2023/03/23 05:55:11;;;;;;;0.00;0.00;;;10.50;99.90;;;;;;5052549;28;20061;-82
2023/03/23 05:57:37;;;;;;;0.10;0.10;;;10.40;99.90;;;;;;5053928;28;20056;-82
2023/03/23 06:00:19;;;;;;;0.30;0.30;;;10.40;99.90;;;;;;5036147;28;20045;-81
2023/03/23 06:02:46;;;;;;;0.00;0.00;;;10.40;99.90;;;;;;5052854;28;20053;-81
2023/03/23 06:05:13;;;;;;;0.00;0.00;;;10.40;99.90;;;;;;5052892;28;20516;-82
2023/03/23 06:07:39;;;;;;;0.10;0.03;;;10.40;99.90;;;;;;5053671;28;20045;-83
2023/03/23 06:10:06;;;;;;;0.00;0.00;;;10.30;99.90;;;;;;5051837;28;20076;-82
2023/03/23 06:12:32;;;;;;;0.00;0.00;;;10.40;99.90;;;;;;5052372;28;20049;-82
2023/03/23 06:14:58;;;;;;;0.00;0.00;;;10.40;99.90;;;;;;5035664;28;20075;-82
2023/03/23 06:17:24;;;;;;;0.00;0.00;;;10.40;99.90;;;;;;5036116;28;20477;-82
2023/03/23 06:19:50;;;;;;;0.00;0.00;;;10.40;99.90;;;;;;5052312;28;20041;-82
2023/03/23 06:22:17;;;;;;;0.00;0.00;;;10.40;99.90;;;;;;5053532;28;20081;-83
2023/03/23 06:24:44;;;;;;;0.10;0.10;;;10.40;99.90;;;;;;5051569;28;20125;-85
2023/03/23 06:27:10;;;;;;;0.00;0.00;;;10.40;99.90;;;;;;5046492;28;20057;-83
2023/03/23 06:29:36;;;;;;;0.22;0.08;;;10.50;99.90;;;;;;5032296;28;20049;-83
2023/03/23 06:32:04;;;;;;;0.00;0.00;;;10.50;99.90;;;;;;5035540;28;20159;-82
2023/03/23 06:34:30;;;;;;;0.00;0.00;;;10.50;99.90;;;;;;5053653;28;20077;-82
2023/03/23 06:36:57;;;;;;;0.00;0.00;;;10.50;99.90;;;;;;5053645;28;20106;-82
2023/03/23 06:39:22;;;;;;;0.00;0.00;;;10.60;99.90;;;;;;5035718;28;20053;-81
2023/03/23 06:41:49;;;;;;;0.00;0.00;;;10.60;99.90;;;;;;5035735;28;20063;-82
2023/03/23 06:44:15;;;;;;;4.60;0.75;;;10.70;99.90;;;;;;5051948;28;20469;-81
2023/03/23 06:46:42;;;;;;;1.75;0.85;;;10.70;99.90;;;;;;5053343;28;20053;-81
2023/03/23 06:49:08;;;;;;;0.00;0.00;;;10.70;99.90;;;;;;5019275;28;20080;-81
2023/03/23 06:51:35;;;;;;;0.70;0.28;;;10.80;99.90;;;;;;5027792;28;20404;-82
2023/03/23 06:54:01;;;;;;;0.68;0.68;;;10.80;99.90;;;;;;5050515;28;20120;-82
2023/03/23 06:56:26;;;;;;;0.00;0.00;;;10.80;99.90;;;;;;5012089;28;20046;-84
2023/03/23 06:58:52;;;;;;;0.00;0.00;;;10.90;99.90;;;;;;5026977;28;20092;-83
2023/03/23 07:01:18;;;;;;;0.95;0.30;;;10.90;99.90;;;;;;5029125;28;20049;-82
2023/03/23 07:03:44;;;;;;;0.00;0.00;;;10.90;99.90;;;;;;5014046;28;20658;-83
2023/03/23 07:06:10;;;;;;;2.10;0.52;;;10.90;99.90;;;;;;5014987;28;20106;-82
2023/03/23 07:08:36;;;;;;;1.15;0.55;;;10.90;99.90;;;;;;5017679;28;20041;-82
2023/03/23 07:11:03;;;;;;;0.22;0.22;;;11.00;99.90;;;;;;5011025;28;20045;-81
2023/03/23 07:13:29;;;;;;;0.00;0.00;;;11.10;99.90;;;;;;5030974;28;20056;-81
2023/03/23 07:15:55;;;;;;;0.20;0.00;;;11.10;99.90;;;;;;5011487;28;20046;-82
2023/03/23 07:18:21;;;;;;;1.40;0.77;;;11.20;99.90;;;;;;5011959;28;20046;-81
2023/03/23 07:20:51;;;;;;;0.00;0.00;;;11.20;99.90;;;;;;5028547;28;20056;-81
2023/03/23 07:23:18;;;;;;;0.00;0.00;;;11.20;99.90;;;;;;5016742;28;20092;-81
2023/03/23 07:25:45;;;;;;;0.00;0.00;;;11.20;99.90;;;;;;5023763;28;20052;-81
2023/03/23 07:28:11;;;;;;;0.00;0.00;;;11.20;99.90;;;;;;5038578;28;20397;-81
2023/03/23 07:30:38;;;;;;;0.25;0.25;;;11.20;99.90;;;;;;5038863;28;20049;-81
2023/03/23 07:33:06;;;;;;;0.00;0.00;;;11.20;99.90;;;;;;5038927;28;20045;-82
2023/03/23 07:35:32;;;;;;;0.00;0.00;;;11.20;99.90;;;;;;5022414;28;20552;-81
2023/03/23 07:37:59;;;;;;;0.32;0.32;;;11.30;99.90;;;;;;5056390;28;20087;-80
2023/03/23 07:40:26;;;;;;;0.40;0.40;;;11.30;99.90;;;;;;5056419;28;20138;-81
2023/03/23 07:42:55;;;;;;;0.00;0.00;;;11.30;99.90;;;;;;5038715;28;20084;-80
2023/03/23 07:45:21;;;;;;;0.00;0.00;;;11.30;99.90;;;;;;5056374;28;20044;-81
2023/03/23 07:47:47;;;;;;;0.00;0.00;;;11.40;99.90;;;;;;5038724;28;20099;-81
2023/03/23 07:50:13;;;;;;;0.10;0.10;;;11.40;99.90;;;;;;5056151;28;20048;-81
2023/03/23 07:52:41;;;;;;;0.00;0.00;;;11.40;99.90;;;;;;5038298;28;20053;-81
2023/03/23 07:55:17;;;;;;;0.00;0.00;;;11.50;99.90;;;;;;5021668;28;20106;-81
2023/03/23 07:57:47;;;;;;;0.00;0.00;;;11.50;99.90;;;;;;5038544;28;20049;-80
2023/03/23 08:00:22;;;;;;;0.30;0.00;;;11.50;99.90;;;;;;5038701;28;20056;-81
2023/03/23 08:02:52;;;;;;;0.00;0.00;;;11.60;99.90;;;;;;5039082;28;20110;-81
2023/03/23 08:05:20;;;;;;;0.00;0.00;;;11.60;99.90;;;;;;5021699;28;20049;-80
2023/03/23 08:07:47;;;;;;;3.65;0.63;;;11.60;99.90;;;;;;5021998;28;20051;-81
2023/03/23 08:10:14;;;;;;;0.00;0.00;;;11.70;99.90;;;;;;5055892;28;20049;-80
2023/03/23 08:12:41;;;;;;;0.00;0.00;;;11.70;99.90;;;;;;5038393;28;20067;-81
2023/03/23 08:15:12;;;;;;;0.40;0.40;;;11.80;99.90;;;;;;5037995;28;20045;-81
2023/03/23 08:17:38;;;;;;;0.30;0.20;;;11.80;99.90;;;;;;5037981;28;20053;-81
2023/03/23 08:20:10;;;;;;;0.00;0.00;;;11.80;99.90;;;;;;5021422;28;20048;-81
2023/03/23 08:22:38;;;;;;;0.77;0.22;;;11.80;99.90;;;;;;5056207;28;20045;-81
2023/03/23 08:25:06;;;;;;;0.00;0.00;;;11.90;99.90;;;;;;5021267;28;20390;-81
2023/03/23 08:27:32;;;;;;;0.00;0.00;;;11.90;99.90;;;;;;5038322;28;20049;-81
2023/03/23 08:29:58;;;;;;;0.15;0.15;;;12.00;99.90;;;;;;5021578;28;20109;-80
2023/03/23 08:32:24;;;;;;;0.00;0.00;;;11.90;99.90;;;;;;5037586;28;20061;-81
2023/03/23 08:34:49;;;;;;;1.67;0.40;;;12.00;99.90;;;;;;5036988;28;20041;-81
2023/03/23 08:37:16;;;;;;;0.00;0.00;;;12.00;99.90;;;;;;5037756;28;20374;-81
2023/03/23 08:39:42;;;;;;;0.38;0.28;;;12.00;99.90;;;;;;5021269;28;20055;-81
2023/03/23 08:42:09;;;;;;;0.00;0.00;;;12.00;99.90;;;;;;5020950;28;20417;-81
2023/03/23 08:44:36;;;;;;;0.43;0.43;;;12.00;99.90;;;;;;5037332;28;20049;-81
2023/03/23 08:47:03;;;;;;;0.00;0.00;;;12.00;99.90;;;;;;5037485;28;20057;-81
2023/03/23 08:49:30;;;;;;;0.00;0.00;;;12.00;99.90;;;;;;5037967;28;20584;-81
2023/03/23 08:51:56;;;;;;;0.38;0.25;;;12.10;99.90;;;;;;5004677;28;20091;-81
2023/03/23 08:54:22;;;;;;;0.13;0.10;;;12.10;99.90;;;;;;5020181;28;20505;-81
2023/03/23 08:56:47;;;;;;;0.40;0.40;;;12.10;99.90;;;;;;5020768;28;20063;-81
2023/03/23 08:59:13;;;;;;;0.00;0.00;;;12.10;99.90;;;;;;5037592;28;20127;-81
2023/03/23 09:01:39;;;;;;;0.10;0.08;;;12.10;99.90;;;;;;5020783;28;20096;-81
2023/03/23 09:04:05;;;;;;;0.30;0.20;;;12.10;99.90;;;;;;5020366;28;20554;-82
2023/03/23 09:06:30;;;;;;;0.00;0.00;;;12.10;99.90;;;;;;5020838;28;20101;-87
2023/03/23 09:08:56;;;;;;;0.00;0.00;;;12.10;99.90;;;;;;5037074;28;20423;-87
2023/03/23 09:11:22;;;;;;;0.22;0.15;;;12.10;99.90;;;;;;5037076;28;20080;-81
2023/03/23 09:13:47;;;;;;;0.00;0.00;;;12.10;99.90;;;;;;5020534;28;20063;-82
2023/03/23 09:16:14;;;;;;;1.45;0.73;;;12.10;99.90;;;;;;5004105;28;20044;-81
2023/03/23 09:18:39;;;;;;;0.25;0.17;;;12.10;99.90;;;;;;5036693;28;20124;-81
2023/03/23 09:21:06;;;;;;;0.00;0.00;;;12.00;99.90;;;;;;5036859;28;20127;-80
2023/03/23 09:23:32;;;;;;;0.00;0.00;;;12.00;99.90;;;;;;5020260;28;20396;-81
2023/03/23 09:26:01;;;;;;;0.00;0.00;;;12.00;99.90;;;;;;5053724;28;20551;-81
2023/03/23 09:28:27;;;;;;;1.85;0.10;;;12.00;99.90;;;;;;5036662;28;20063;-81
2023/03/23 09:30:57;;;;;;;0.00;0.00;;;12.00;99.90;;;;;;5020079;28;20485;-81
2023/03/23 09:33:24;;;;;;;0.00;0.00;;;12.10;99.90;;;;;;5036717;28;20051;-81
2023/03/23 09:35:50;;;;;;;0.38;0.10;;;12.20;99.90;;;;;;5036682;28;20051;-81
2023/03/23 09:38:15;;;;;;;1.20;0.45;;;12.20;99.90;;;;;;5036634;28;20120;-82
2023/03/23 09:40:52;;;;;;;0.10;0.00;;;12.20;99.90;;;;;;5015928;28;20428;-82
2023/03/23 09:43:39;;;;;;;0.00;0.00;;;12.30;99.90;;;;;;5000210;28;20105;-82
2023/03/23 09:46:43;;;;;;;0.05;0.00;;;12.40;99.90;;;;;;5028456;28;20041;-82
2023/03/23 09:49:15;;;;;;;0.00;0.00;;;12.60;99.90;;;;;;5036298;28;20077;-82
2023/03/23 09:51:46;;;;;;;0.00;0.00;;;12.80;99.90;;;;;;5036032;28;20049;-82
2023/03/23 09:54:27;;;;;;;1.27;0.60;;;12.90;99.90;;;;;;5019068;28;20059;-83
2023/03/23 09:56:54;;;;;;;0.45;0.45;;;12.80;99.90;;;;;;5036388;28;20052;-82
2023/03/23 09:59:41;;;;;;;0.00;0.00;;;12.80;99.90;;;;;;5036111;28;20040;-81
2023/03/23 10:02:28;;;;;;;0.00;0.00;;;12.80;99.90;;;;;;5019695;28;20057;-81
2023/03/23 10:04:58;;;;;;;0.00;0.00;;;12.80;99.90;;;;;;5035619;28;20040;-81
2023/03/23 10:07:26;;;;;;;0.00;0.00;;;13.00;99.90;;;;;;5036088;28;20049;-81
2023/03/23 10:10:03;;;;;;;0.00;0.00;;;13.20;99.90;;;;;;5036434;28;20396;-81
2023/03/23 10:12:42;;;;;;;0.00;0.00;;;13.50;99.90;;;;;;5053562;28;20047;-81
2023/03/23 10:15:36;;;;;;;0.17;0.17;;;13.80;99.90;;;;;;5053417;28;20481;-81
2023/03/23 10:18:10;;;;;;;0.00;0.00;;;14.20;99.90;;;;;;5019497;28;20053;-81
2023/03/23 10:20:47;;;;;;;0.00;0.00;;;14.40;99.90;;;;;;5035974;28;20041;-81
2023/03/23 10:23:18;;;;;;;0.00;0.00;;;14.50;99.90;;;;;;5035787;28;20053;-81
2023/03/23 10:26:24;;;;;;;0.00;0.00;;;14.60;99.90;;;;;;5035368;28;20048;-81
2023/03/23 10:28:55;;;;;;;0.13;0.13;;;14.50;99.90;;;;;;5018762;28;20040;-81
2023/03/23 10:31:38;;;;;;;0.20;0.20;;;14.60;99.90;;;;;;5035849;28;20037;-81
2023/03/23 10:34:35;;;;;;;0.10;0.10;;;14.70;99.90;;;;;;5035845;28;20049;-81
2023/03/23 10:37:29;;;;;;;0.32;0.22;;;14.80;99.90;;;;;;5053506;28;20072;-81
2023/03/23 10:39:58;;;;;;;0.00;0.00;;;14.90;99.90;;;;;;5035733;28;20071;-81
2023/03/23 10:42:33;;;;;;;0.20;0.10;;;15.20;99.90;;;;;;5035719;28;20049;-81
2023/03/23 10:45:28;;;;;;;0.00;0.00;;;15.30;99.90;;;;;;5035995;28;20144;-81
2023/03/23 10:48:27;;;;;;;0.00;0.00;;;15.10;99.90;;;;;;5033422;28;20394;-81
2023/03/23 10:50:56;;;;;;;0.00;0.00;;;14.90;99.90;;;;;;5030208;28;20060;-80
2023/03/23 10:53:43;;;;;;;0.65;0.43;;;14.60;99.90;;;;;;5035850;28;20057;-81
2023/03/23 10:56:38;;;;;;;0.10;0.10;;;14.40;99.90;;;;;;5035691;28;20102;-81
2023/03/23 10:59:21;;;;;;;0.00;0.00;;;14.30;99.90;;;;;;5023211;28;20088;-81
2023/03/23 11:01:51;;;;;;;1.88;0.28;;;14.30;99.90;;;;;;5039584;28;20436;-81
2023/03/23 11:04:19;;;;;;;0.00;0.00;;;14.60;99.90;;;;;;5039275;28;20095;-81
2023/03/23 11:07:00;;;;;;;0.00;0.00;;;14.80;99.90;;;;;;5023005;28;20052;-81
2023/03/23 11:09:36;;;;;;;0.10;0.10;;;15.20;99.90;;;;;;5039462;28;20041;-81
2023/03/23 11:12:02;;;;;;;0.00;0.00;;;15.50;99.90;;;;;;5039262;28;20496;-80
2023/03/23 11:14:30;;;;;;;0.00;0.00;;;15.80;99.90;;;;;;5039231;28;20053;-80
2023/03/23 11:16:58;;;;;;;0.05;0.05;;;15.80;99.90;;;;;;5039271;28;20053;-80
2023/03/23 11:19:36;;;;;;;0.00;0.00;;;16.00;99.90;;;;;;5039085;28;20052;-81
2023/03/23 11:22:05;;;;;;;0.00;0.00;;;16.20;99.90;;;;;;5039457;28;20439;-81
2023/03/23 11:24:40;;;;;;;0.35;0.00;;;16.30;99.90;;;;;;5022059;28;20045;-81
2023/03/23 11:27:08;;;;;;;0.00;0.00;;;16.30;99.90;;;;;;5056623;28;20429;-81
2023/03/23 11:29:36;;;;;;;1.55;0.52;;;16.20;99.90;;;;;;5022773;28;20137;-81
2023/03/23 11:32:10;;;;;;;0.90;0.70;;;16.30;99.90;;;;;;5022290;28;20065;-81
2023/03/23 11:34:47;;;;;;;0.00;0.00;;;16.30;99.90;;;;;;5022855;28;20428;-81
2023/03/23 11:37:42;;;;;;;0.10;0.10;;;16.20;99.90;;;;;;5038752;28;20052;-82
2023/03/23 11:40:11;;;;;;;0.40;0.17;;;16.00;99.90;;;;;;5055940;28;20044;-81
2023/03/23 11:42:59;;;;;;;0.05;0.05;;;15.70;99.90;;;;;;5035631;28;20128;-81
2023/03/23 11:45:32;;;;;;;0.00;0.00;;;15.40;99.90;;;;;;5036276;28;20135;-81
2023/03/23 11:48:10;;;;;;;0.00;0.00;;;15.10;99.90;;;;;;5022248;28;20060;-82
2023/03/23 11:51:08;;;;;;;0.05;0.05;;;14.90;99.90;;;;;;5037582;28;20041;-82
2023/03/23 11:53:52;;;;;;;0.35;0.25;;;14.70;99.90;;;;;;5008207;28;20523;-83
2023/03/23 11:56:33;;;;;;;0.10;0.10;;;14.50;99.90;;;;;;5013063;28;20497;-82
2023/03/23 11:59:02;;;;;;;0.00;0.00;;;14.30;99.90;;;;;;5038404;28;20045;-83
2023/03/23 12:01:47;;;;;;;0.95;0.50;;;14.30;99.90;;;;;;5038100;28;20057;-82
2023/03/23 12:04:38;;;;;;;0.00;0.00;;;14.60;99.90;;;;;;5038600;28;20053;-83
2023/03/23 12:07:22;;;;;;;0.00;0.00;;;14.60;99.90;;;;;;5038644;28;20054;-86
2023/03/23 12:10:08;;;;;;;0.00;0.00;;;14.50;99.90;;;;;;5037623;28;20045;-81
2023/03/23 12:13:03;;;;;;;0.10;0.05;;;14.30;99.90;;;;;;5055881;28;20052;-81
2023/03/23 12:15:48;;;;;;;4.83;0.43;;;14.40;99.90;;;;;;5021826;28;20048;-82
2023/03/23 12:18:22;;;;;;;3.95;0.57;;;14.80;99.90;;;;;;5038336;28;20131;-80
2023/03/23 12:21:21;;;;;;;0.75;0.15;;;15.10;99.90;;;;;;5021608;28;20083;-81
2023/03/23 12:24:29;;;;;;;0.55;0.00;;;15.00;99.90;;;;;;4998207;28;20057;-80
2023/03/23 12:27:24;;;;;;;0.08;0.08;;;14.80;99.90;;;;;;4992933;28;20452;-80
2023/03/23 12:29:56;;;;;;;0.00;0.00;;;14.60;99.90;;;;;;5037787;28;20053;-81
2023/03/23 12:32:35;;;;;;;0.00;0.00;;;14.50;99.90;;;;;;5037751;28;20067;-81
2023/03/23 12:35:11;;;;;;;0.00;0.00;;;14.30;99.90;;;;;;5021970;28;20053;-81
2023/03/23 12:38:14;;;;;;;0.45;0.32;;;14.30;99.90;;;;;;5037993;28;20049;-81
2023/03/23 12:41:07;;;;;;;0.00;0.00;;;14.40;99.90;;;;;;5037548;28;20044;-81
2023/03/23 12:43:39;;;;;;;0.00;0.00;;;14.50;99.90;;;;;;5037647;28;20084;-81
2023/03/23 12:46:11;;;;;;;0.10;0.10;;;14.60;99.90;;;;;;5037522;28;20041;-81
2023/03/23 12:48:44;;;;;;;0.00;0.00;;;14.70;99.90;;;;;;5037453;28;20484;-81
2023/03/23 12:51:42;;;;;;;0.00;0.00;;;15.00;99.90;;;;;;5020772;28;20053;-81
2023/03/23 12:54:27;;;;;;;0.00;0.00;;;15.40;99.90;;;;;;5010433;28;20057;-81
2023/03/23 12:57:00;;;;;;;;;;;15.70;99.90;;;;;;5021470;28;20040;-81
2023/03/23 12:59:47;;;;;;;0.20;0.20;;;15.90;99.90;;;;;;5021039;28;19974;-81
2023/03/23 13:02:45;;;;;;;0.00;0.00;;;16.30;99.90;;;;;;5037416;28;20056;-81
2023/03/23 13:05:14;;;;;;;0.03;0.03;;;16.50;99.90;;;;;;5006684;28;20106;-81
2023/03/23 13:07:48;;;;;;;0.00;0.00;;;16.60;99.90;;;;;;5020703;28;20055;-81
2023/03/23 13:10:27;;;;;;;0.00;0.00;;;16.70;99.90;;;;;;5036990;28;20052;-81